sensor_id;sensor_type;location;lat;lon;timestamp;P1;durP1;ratioP1;P2;durP2;ratioP2
7239;SDS011;3661;53.288;10.458;2023-03-12T00:02:05;623.35;;;556.20;;
7239;SDS011;3661;53.288;10.458;2023-03-12T00:04:40;642.60;;;575.38;;
7239;SDS011;3661;53.288;10.458;2023-03-12T00:07:12;642.78;;;575.47;;
7239;SDS011;3661;53.288;10.458;2023-03-12T00:09:44;645.53;;;578.13;;
7239;SDS011;3661;53.288;10.458;2023-03-12T00:12:16;634.58;;;567.47;;
7239;SDS011;3661;53.288;10.458;2023-03-12T00:14:48;641.17;;;573.95;;
7239;SDS011;3661;53.288;10.458;2023-03-12T00:17:20;630.45;;;563.50;;
7239;SDS011;3661;53.288;10.458;2023-03-12T00:19:54;625.15;;;558.25;;
7239;SDS011;3661;53.288;10.458;2023-03-12T00:22:26;637.20;;;569.92;;
7239;SDS011;3661;53.288;10.458;2023-03-12T00:24:59;631.50;;;564.38;;
7239;SDS011;3661;53.288;10.458;2023-03-12T00:27:31;629.60;;;562.50;;
7239;SDS011;3661;53.288;10.458;2023-03-12T00:30:04;637.70;;;570.72;;
7239;SDS011;3661;53.288;10.458;2023-03-12T00:32:37;634.03;;;567.33;;
7239;SDS011;3661;53.288;10.458;2023-03-12T00:35:11;627.00;;;560.30;;
7239;SDS011;3661;53.288;10.458;2023-03-12T00:37:43;622.47;;;556.20;;
7239;SDS011;3661;53.288;10.458;2023-03-12T00:40:15;634.55;;;567.97;;
7239;SDS011;3661;53.288;10.458;2023-03-12T00:42:48;635.05;;;568.45;;
7239;SDS011;3661;53.288;10.458;2023-03-12T00:45:20;631.33;;;564.65;;
7239;SDS011;3661;53.288;10.458;2023-03-12T00:47:52;638.40;;;571.55;;
7239;SDS011;3661;53.288;10.458;2023-03-12T00:50:26;628.27;;;561.87;;
7239;SDS011;3661;53.288;10.458;2023-03-12T00:52:58;625.08;;;558.22;;
7239;SDS011;3661;53.288;10.458;2023-03-12T00:55:31;638.53;;;571.83;;
7239;SDS011;3661;53.288;10.458;2023-03-12T00:58:03;633.13;;;566.63;;
7239;SDS011;3661;53.288;10.458;2023-03-12T01:00:35;636.38;;;569.38;;
7239;SDS011;3661;53.288;10.458;2023-03-12T01:03:07;618.47;;;552.28;;
7239;SDS011;3661;53.288;10.458;2023-03-12T01:05:41;621.47;;;554.88;;
7239;SDS011;3661;53.288;10.458;2023-03-12T01:08:13;636.63;;;570.08;;
7239;SDS011;3661;53.288;10.458;2023-03-12T01:10:47;628.17;;;561.95;;
7239;SDS011;3661;53.288;10.458;2023-03-12T01:13:19;625.50;;;559.30;;
7239;SDS011;3661;53.288;10.458;2023-03-12T01:15:53;615.03;;;549.25;;
7239;SDS011;3661;53.288;10.458;2023-03-12T01:18:28;615.47;;;549.63;;
7239;SDS011;3661;53.288;10.458;2023-03-12T01:21:06;606.88;;;540.88;;
7239;SDS011;3661;53.288;10.458;2023-03-12T01:23:42;625.73;;;559.83;;
7239;SDS011;3661;53.288;10.458;2023-03-12T01:26:16;621.22;;;555.13;;
7239;SDS011;3661;53.288;10.458;2023-03-12T01:28:48;608.05;;;542.33;;
7239;SDS011;3661;53.288;10.458;2023-03-12T01:31:21;616.97;;;551.28;;
7239;SDS011;3661;53.288;10.458;2023-03-12T01:33:53;605.28;;;539.47;;
7239;SDS011;3661;53.288;10.458;2023-03-12T01:36:28;620.20;;;553.97;;
7239;SDS011;3661;53.288;10.458;2023-03-12T01:39:01;619.65;;;553.58;;
7239;SDS011;3661;53.288;10.458;2023-03-12T01:41:34;614.80;;;549.00;;
7239;SDS011;3661;53.288;10.458;2023-03-12T01:44:10;614.60;;;548.70;;
7239;SDS011;3661;53.288;10.458;2023-03-12T01:46:45;597.05;;;531.60;;
7239;SDS011;3661;53.288;10.458;2023-03-12T01:49:18;617.95;;;552.03;;
7239;SDS011;3661;53.288;10.458;2023-03-12T01:51:55;616.07;;;550.67;;
7239;SDS011;3661;53.288;10.458;2023-03-12T01:54:32;602.95;;;537.75;;
7239;SDS011;3661;53.288;10.458;2023-03-12T01:57:09;607.95;;;541.85;;
7239;SDS011;3661;53.288;10.458;2023-03-12T01:59:44;615.13;;;549.72;;
7239;SDS011;3661;53.288;10.458;2023-03-12T02:02:22;616.22;;;550.45;;
7239;SDS011;3661;53.288;10.458;2023-03-12T02:05:05;608.40;;;543.40;;
7239;SDS011;3661;53.288;10.458;2023-03-12T02:07:45;599.47;;;534.65;;
7239;SDS011;3661;53.288;10.458;2023-03-12T02:10:17;603.08;;;538.15;;
7239;SDS011;3661;53.288;10.458;2023-03-12T02:12:50;604.17;;;539.17;;
7239;SDS011;3661;53.288;10.458;2023-03-12T02:15:22;599.83;;;534.83;;
7239;SDS011;3661;53.288;10.458;2023-03-12T02:17:54;591.58;;;526.78;;
7239;SDS011;3661;53.288;10.458;2023-03-12T02:20:33;596.00;;;531.28;;
7239;SDS011;3661;53.288;10.458;2023-03-12T02:23:15;596.17;;;531.78;;
7239;SDS011;3661;53.288;10.458;2023-03-12T02:25:53;588.73;;;524.27;;
7239;SDS011;3661;53.288;10.458;2023-03-12T02:28:27;594.38;;;529.65;;
7239;SDS011;3661;53.288;10.458;2023-03-12T02:31:05;583.70;;;514.88;;
7239;SDS011;3661;53.288;10.458;2023-03-12T02:33:38;583.05;;;518.60;;
7239;SDS011;3661;53.288;10.458;2023-03-12T02:36:12;585.33;;;520.92;;
7239;SDS011;3661;53.288;10.458;2023-03-12T02:38:45;594.28;;;529.55;;
7239;SDS011;3661;53.288;10.458;2023-03-12T02:41:20;583.17;;;518.97;;
7239;SDS011;3661;53.288;10.458;2023-03-12T02:43:57;578.85;;;513.95;;
7239;SDS011;3661;53.288;10.458;2023-03-12T02:46:33;579.42;;;515.53;;
7239;SDS011;3661;53.288;10.458;2023-03-12T02:49:08;585.78;;;521.90;;
7239;SDS011;3661;53.288;10.458;2023-03-12T02:51:42;584.38;;;520.58;;
7239;SDS011;3661;53.288;10.458;2023-03-12T02:54:16;582.05;;;518.15;;
7239;SDS011;3661;53.288;10.458;2023-03-12T02:56:51;577.60;;;513.97;;
7239;SDS011;3661;53.288;10.458;2023-03-12T02:59:25;575.67;;;511.98;;
7239;SDS011;3661;53.288;10.458;2023-03-12T03:02:02;582.28;;;518.25;;
7239;SDS011;3661;53.288;10.458;2023-03-12T03:04:38;586.20;;;522.20;;
7239;SDS011;3661;53.288;10.458;2023-03-12T03:07:12;580.20;;;515.67;;
7239;SDS011;3661;53.288;10.458;2023-03-12T03:09:44;576.28;;;512.80;;
7239;SDS011;3661;53.288;10.458;2023-03-12T03:12:25;572.30;;;506.77;;
7239;SDS011;3661;53.288;10.458;2023-03-12T03:14:57;570.40;;;505.15;;
7239;SDS011;3661;53.288;10.458;2023-03-12T03:17:30;577.72;;;514.17;;
7239;SDS011;3661;53.288;10.458;2023-03-12T03:20:03;568.10;;;498.45;;
7239;SDS011;3661;53.288;10.458;2023-03-12T03:22:40;570.45;;;507.45;;
7239;SDS011;3661;53.288;10.458;2023-03-12T03:25:13;569.05;;;494.00;;
7239;SDS011;3661;53.288;10.458;2023-03-12T03:27:47;567.33;;;493.13;;
7239;SDS011;3661;53.288;10.458;2023-03-12T03:30:19;564.17;;;497.87;;
7239;SDS011;3661;53.288;10.458;2023-03-12T03:32:51;563.00;;;483.57;;
7239;SDS011;3661;53.288;10.458;2023-03-12T03:35:25;563.63;;;492.23;;
7239;SDS011;3661;53.288;10.458;2023-03-12T03:37:58;566.87;;;486.43;;
7239;SDS011;3661;53.288;10.458;2023-03-12T03:40:30;563.92;;;483.35;;
7239;SDS011;3661;53.288;10.458;2023-03-12T03:43:05;566.22;;;491.25;;
7239;SDS011;3661;53.288;10.458;2023-03-12T03:45:38;562.92;;;483.73;;
7239;SDS011;3661;53.288;10.458;2023-03-12T03:48:14;564.50;;;482.38;;
7239;SDS011;3661;53.288;10.458;2023-03-12T03:50:46;561.88;;;486.35;;
7239;SDS011;3661;53.288;10.458;2023-03-12T03:53:19;566.78;;;489.48;;
7239;SDS011;3661;53.288;10.458;2023-03-12T03:55:51;560.88;;;482.52;;
7239;SDS011;3661;53.288;10.458;2023-03-12T03:58:27;562.83;;;485.10;;
7239;SDS011;3661;53.288;10.458;2023-03-12T04:01:01;564.13;;;493.03;;
7239;SDS011;3661;53.288;10.458;2023-03-12T04:03:33;558.15;;;487.55;;
7239;SDS011;3661;53.288;10.458;2023-03-12T04:06:06;557.92;;;494.55;;
7239;SDS011;3661;53.288;10.458;2023-03-12T04:08:39;553.95;;;487.35;;
7239;SDS011;3661;53.288;10.458;2023-03-12T04:11:12;554.50;;;491.73;;
7239;SDS011;3661;53.288;10.458;2023-03-12T04:13:48;558.47;;;493.13;;
7239;SDS011;3661;53.288;10.458;2023-03-12T04:16:21;555.83;;;479.47;;
7239;SDS011;3661;53.288;10.458;2023-03-12T04:18:53;556.15;;;491.77;;
7239;SDS011;3661;53.288;10.458;2023-03-12T04:21:26;552.88;;;483.88;;
7239;SDS011;3661;53.288;10.458;2023-03-12T04:23:59;548.65;;;477.85;;
7239;SDS011;3661;53.288;10.458;2023-03-12T04:26:31;550.90;;;477.38;;
7239;SDS011;3661;53.288;10.458;2023-03-12T04:29:05;549.70;;;479.00;;
7239;SDS011;3661;53.288;10.458;2023-03-12T04:31:37;549.57;;;480.20;;
7239;SDS011;3661;53.288;10.458;2023-03-12T04:34:10;551.20;;;472.92;;
7239;SDS011;3661;53.288;10.458;2023-03-12T04:36:43;542.70;;;473.63;;
7239;SDS011;3661;53.288;10.458;2023-03-12T04:39:17;545.47;;;460.70;;
7239;SDS011;3661;53.288;10.458;2023-03-12T04:41:50;544.97;;;472.80;;
7239;SDS011;3661;53.288;10.458;2023-03-12T04:44:24;543.45;;;466.50;;
7239;SDS011;3661;53.288;10.458;2023-03-12T04:46:56;539.15;;;465.88;;
7239;SDS011;3661;53.288;10.458;2023-03-12T04:49:28;540.90;;;462.98;;
7239;SDS011;3661;53.288;10.458;2023-03-12T04:52:01;542.25;;;464.08;;
7239;SDS011;3661;53.288;10.458;2023-03-12T04:54:33;543.47;;;461.45;;
7239;SDS011;3661;53.288;10.458;2023-03-12T04:57:06;543.63;;;467.87;;
7239;SDS011;3661;53.288;10.458;2023-03-12T04:59:42;537.55;;;459.85;;
7239;SDS011;3661;53.288;10.458;2023-03-12T05:02:15;539.30;;;459.63;;
7239;SDS011;3661;53.288;10.458;2023-03-12T05:04:48;539.17;;;461.38;;
7239;SDS011;3661;53.288;10.458;2023-03-12T05:07:23;537.20;;;465.30;;
7239;SDS011;3661;53.288;10.458;2023-03-12T05:09:55;536.22;;;465.48;;
7239;SDS011;3661;53.288;10.458;2023-03-12T05:12:28;532.00;;;462.13;;
7239;SDS011;3661;53.288;10.458;2023-03-12T05:15:01;534.30;;;456.20;;
7239;SDS011;3661;53.288;10.458;2023-03-12T05:17:35;533.63;;;456.52;;
7239;SDS011;3661;53.288;10.458;2023-03-12T05:20:08;531.97;;;455.30;;
7239;SDS011;3661;53.288;10.458;2023-03-12T05:22:41;534.65;;;456.13;;
7239;SDS011;3661;53.288;10.458;2023-03-12T05:25:13;534.88;;;449.23;;
7239;SDS011;3661;53.288;10.458;2023-03-12T05:27:46;535.90;;;460.13;;
7239;SDS011;3661;53.288;10.458;2023-03-12T05:30:20;530.33;;;437.57;;
7239;SDS011;3661;53.288;10.458;2023-03-12T05:32:52;537.28;;;457.00;;
7239;SDS011;3661;53.288;10.458;2023-03-12T05:35:25;536.42;;;431.48;;
7239;SDS011;3661;53.288;10.458;2023-03-12T05:37:57;533.92;;;441.67;;
7239;SDS011;3661;53.288;10.458;2023-03-12T05:40:29;530.35;;;452.33;;
7239;SDS011;3661;53.288;10.458;2023-03-12T05:43:01;529.63;;;439.85;;
7239;SDS011;3661;53.288;10.458;2023-03-12T05:45:35;530.17;;;442.02;;
7239;SDS011;3661;53.288;10.458;2023-03-12T05:48:07;524.40;;;441.87;;
7239;SDS011;3661;53.288;10.458;2023-03-12T05:50:40;526.10;;;451.42;;
7239;SDS011;3661;53.288;10.458;2023-03-12T05:53:12;531.20;;;446.70;;
7239;SDS011;3661;53.288;10.458;2023-03-12T05:55:45;528.58;;;448.38;;
7239;SDS011;3661;53.288;10.458;2023-03-12T05:58:17;526.63;;;445.48;;
7239;SDS011;3661;53.288;10.458;2023-03-12T06:00:50;531.95;;;453.00;;
7239;SDS011;3661;53.288;10.458;2023-03-12T06:03:23;525.03;;;447.08;;
7239;SDS011;3661;53.288;10.458;2023-03-12T06:05:55;528.30;;;447.13;;
7239;SDS011;3661;53.288;10.458;2023-03-12T06:08:29;523.73;;;448.47;;
7239;SDS011;3661;53.288;10.458;2023-03-12T06:11:02;526.40;;;453.08;;
7239;SDS011;3661;53.288;10.458;2023-03-12T06:13:35;529.17;;;452.15;;
7239;SDS011;3661;53.288;10.458;2023-03-12T06:16:10;523.83;;;455.75;;
7239;SDS011;3661;53.288;10.458;2023-03-12T06:18:46;524.60;;;449.88;;
7239;SDS011;3661;53.288;10.458;2023-03-12T06:21:19;522.72;;;451.05;;
7239;SDS011;3661;53.288;10.458;2023-03-12T06:23:53;522.08;;;451.50;;
7239;SDS011;3661;53.288;10.458;2023-03-12T06:26:25;521.35;;;452.23;;
7239;SDS011;3661;53.288;10.458;2023-03-12T06:28:58;520.55;;;450.00;;
7239;SDS011;3661;53.288;10.458;2023-03-12T06:31:31;521.10;;;440.45;;
7239;SDS011;3661;53.288;10.458;2023-03-12T06:34:03;521.95;;;446.55;;
7239;SDS011;3661;53.288;10.458;2023-03-12T06:36:36;519.70;;;444.13;;
7239;SDS011;3661;53.288;10.458;2023-03-12T06:39:11;525.97;;;449.50;;
7239;SDS011;3661;53.288;10.458;2023-03-12T06:41:43;522.00;;;445.67;;
7239;SDS011;3661;53.288;10.458;2023-03-12T06:44:18;524.65;;;444.08;;
7239;SDS011;3661;53.288;10.458;2023-03-12T06:46:53;526.35;;;448.05;;
7239;SDS011;3661;53.288;10.458;2023-03-12T06:49:25;524.03;;;441.75;;
7239;SDS011;3661;53.288;10.458;2023-03-12T06:52:01;528.00;;;448.67;;
7239;SDS011;3661;53.288;10.458;2023-03-12T06:54:33;529.20;;;452.10;;
7239;SDS011;3661;53.288;10.458;2023-03-12T06:57:05;524.38;;;459.67;;
7239;SDS011;3661;53.288;10.458;2023-03-12T06:59:37;527.60;;;462.55;;
7239;SDS011;3661;53.288;10.458;2023-03-12T07:02:11;529.65;;;461.08;;
7239;SDS011;3661;53.288;10.458;2023-03-12T07:04:44;523.40;;;447.75;;
7239;SDS011;3661;53.288;10.458;2023-03-12T07:07:17;525.30;;;465.17;;
7239;SDS011;3661;53.288;10.458;2023-03-12T07:09:49;527.67;;;460.52;;
7239;SDS011;3661;53.288;10.458;2023-03-12T07:12:36;529.78;;;457.83;;
7239;SDS011;3661;53.288;10.458;2023-03-12T07:15:08;531.50;;;460.25;;
7239;SDS011;3661;53.288;10.458;2023-03-12T07:17:43;527.90;;;463.08;;
7239;SDS011;3661;53.288;10.458;2023-03-12T07:20:19;532.37;;;464.47;;
7239;SDS011;3661;53.288;10.458;2023-03-12T07:22:51;533.45;;;475.00;;
7239;SDS011;3661;53.288;10.458;2023-03-12T07:25:24;530.83;;;460.02;;
7239;SDS011;3661;53.288;10.458;2023-03-12T07:27:56;526.00;;;453.25;;
7239;SDS011;3661;53.288;10.458;2023-03-12T07:30:31;533.03;;;473.65;;
7239;SDS011;3661;53.288;10.458;2023-03-12T07:35:51;533.45;;;463.65;;
7239;SDS011;3661;53.288;10.458;2023-03-12T07:38:28;535.53;;;476.23;;
7239;SDS011;3661;53.288;10.458;2023-03-12T07:41:17;534.45;;;467.40;;
7239;SDS011;3661;53.288;10.458;2023-03-12T07:47:17;538.92;;;475.55;;
7239;SDS011;3661;53.288;10.458;2023-03-12T07:49:56;550.28;;;489.67;;
7239;SDS011;3661;53.288;10.458;2023-03-12T07:52:31;550.72;;;490.17;;
7239;SDS011;3661;53.288;10.458;2023-03-12T07:58:53;562.78;;;501.77;;
7239;SDS011;3661;53.288;10.458;2023-03-12T08:01:31;565.92;;;505.00;;
7239;SDS011;3661;53.288;10.458;2023-03-12T08:04:07;563.03;;;502.25;;
7239;SDS011;3661;53.288;10.458;2023-03-12T08:06:51;562.80;;;501.95;;
7239;SDS011;3661;53.288;10.458;2023-03-12T08:09:27;564.90;;;503.90;;
7239;SDS011;3661;53.288;10.458;2023-03-12T08:12:02;573.95;;;513.13;;
7239;SDS011;3661;53.288;10.458;2023-03-12T08:14:42;566.92;;;505.63;;
7239;SDS011;3661;53.288;10.458;2023-03-12T08:17:15;576.83;;;515.25;;
7239;SDS011;3661;53.288;10.458;2023-03-12T08:19:48;569.25;;;508.20;;
7239;SDS011;3661;53.288;10.458;2023-03-12T08:22:20;578.95;;;517.58;;
7239;SDS011;3661;53.288;10.458;2023-03-12T08:24:56;588.53;;;526.30;;
7239;SDS011;3661;53.288;10.458;2023-03-12T08:27:38;578.07;;;516.67;;
7239;SDS011;3661;53.288;10.458;2023-03-12T08:30:16;592.07;;;530.23;;
7239;SDS011;3661;53.288;10.458;2023-03-12T08:32:50;601.80;;;539.38;;
7239;SDS011;3661;53.288;10.458;2023-03-12T08:35:28;606.20;;;544.22;;
7239;SDS011;3661;53.288;10.458;2023-03-12T08:38:12;603.90;;;540.95;;
7239;SDS011;3661;53.288;10.458;2023-03-12T08:40:55;600.17;;;537.15;;
7239;SDS011;3661;53.288;10.458;2023-03-12T08:43:28;603.55;;;540.85;;
7239;SDS011;3661;53.288;10.458;2023-03-12T08:46:01;603.17;;;539.83;;
7239;SDS011;3661;53.288;10.458;2023-03-12T08:48:33;594.33;;;531.45;;
7239;SDS011;3661;53.288;10.458;2023-03-12T08:51:33;614.00;;;550.42;;
7239;SDS011;3661;53.288;10.458;2023-03-12T08:54:37;610.23;;;546.70;;
7239;SDS011;3661;53.288;10.458;2023-03-12T08:57:28;620.90;;;556.05;;
7239;SDS011;3661;53.288;10.458;2023-03-12T09:00:00;633.42;;;568.60;;
7239;SDS011;3661;53.288;10.458;2023-03-12T09:02:35;635.22;;;570.92;;
7239;SDS011;3661;53.288;10.458;2023-03-12T09:05:28;626.83;;;562.83;;
7239;SDS011;3661;53.288;10.458;2023-03-12T09:08:08;645.67;;;581.13;;
7239;SDS011;3661;53.288;10.458;2023-03-12T09:24:39;659.60;;;594.40;;
7239;SDS011;3661;53.288;10.458;2023-03-12T09:27:12;655.60;;;591.38;;
7239;SDS011;3661;53.288;10.458;2023-03-12T09:29:44;675.13;;;609.57;;
7239;SDS011;3661;53.288;10.458;2023-03-12T09:32:20;677.08;;;611.88;;
7239;SDS011;3661;53.288;10.458;2023-03-12T09:34:56;675.42;;;609.70;;
7239;SDS011;3661;53.288;10.458;2023-03-12T09:37:29;674.20;;;607.90;;
7239;SDS011;3661;53.288;10.458;2023-03-12T09:40:05;668.50;;;602.42;;
7239;SDS011;3661;53.288;10.458;2023-03-12T09:42:43;676.55;;;610.05;;
7239;SDS011;3661;53.288;10.458;2023-03-12T09:45:21;679.40;;;612.38;;
7239;SDS011;3661;53.288;10.458;2023-03-12T09:47:56;688.67;;;621.58;;
7239;SDS011;3661;53.288;10.458;2023-03-12T09:50:31;692.50;;;625.40;;
7239;SDS011;3661;53.288;10.458;2023-03-12T09:53:13;682.72;;;615.55;;
7239;SDS011;3661;53.288;10.458;2023-03-12T09:55:54;695.65;;;628.47;;
7239;SDS011;3661;53.288;10.458;2023-03-12T09:58:29;688.83;;;620.92;;
7239;SDS011;3661;53.288;10.458;2023-03-12T10:01:06;702.83;;;635.05;;
7239;SDS011;3661;53.288;10.458;2023-03-12T10:03:59;710.58;;;643.13;;
7239;SDS011;3661;53.288;10.458;2023-03-12T10:06:53;710.05;;;641.88;;
7239;SDS011;3661;53.288;10.458;2023-03-12T10:12:44;717.40;;;649.85;;
7239;SDS011;3661;53.288;10.458;2023-03-12T10:15:31;714.05;;;646.75;;
7239;SDS011;3661;53.288;10.458;2023-03-12T10:18:16;714.47;;;646.50;;
7239;SDS011;3661;53.288;10.458;2023-03-12T10:21:06;730.65;;;662.72;;
7239;SDS011;3661;53.288;10.458;2023-03-12T10:23:57;721.10;;;653.03;;
7239;SDS011;3661;53.288;10.458;2023-03-12T10:26:52;732.10;;;662.88;;
7239;SDS011;3661;53.288;10.458;2023-03-12T10:29:29;730.13;;;661.93;;
7239;SDS011;3661;53.288;10.458;2023-03-12T10:35:45;738.40;;;669.75;;
7239;SDS011;3661;53.288;10.458;2023-03-12T10:38:19;754.47;;;685.47;;
7239;SDS011;3661;53.288;10.458;2023-03-12T10:40:58;755.65;;;686.25;;
7239;SDS011;3661;53.288;10.458;2023-03-12T10:43:30;745.85;;;676.80;;
7239;SDS011;3661;53.288;10.458;2023-03-12T10:46:14;756.15;;;686.47;;
7239;SDS011;3661;53.288;10.458;2023-03-12T10:49:22;747.43;;;677.60;;
7239;SDS011;3661;53.288;10.458;2023-03-12T10:52:16;774.53;;;704.87;;
7239;SDS011;3661;53.288;10.458;2023-03-12T10:54:51;767.53;;;697.45;;
7239;SDS011;3661;53.288;10.458;2023-03-12T10:57:24;752.47;;;682.45;;
7239;SDS011;3661;53.288;10.458;2023-03-12T11:00:16;758.80;;;688.55;;
7239;SDS011;3661;53.288;10.458;2023-03-12T11:02:56;768.08;;;697.50;;
7239;SDS011;3661;53.288;10.458;2023-03-12T11:05:34;769.55;;;698.97;;
7239;SDS011;3661;53.288;10.458;2023-03-12T11:08:19;784.87;;;714.13;;
7239;SDS011;3661;53.288;10.458;2023-03-12T11:11:03;788.22;;;716.83;;
7239;SDS011;3661;53.288;10.458;2023-03-12T11:13:37;790.97;;;719.85;;
7239;SDS011;3661;53.288;10.458;2023-03-12T11:22:43;788.03;;;716.70;;
7239;SDS011;3661;53.288;10.458;2023-03-12T11:25:41;795.55;;;724.03;;
7239;SDS011;3661;53.288;10.458;2023-03-12T11:28:19;810.00;;;738.17;;
7239;SDS011;3661;53.288;10.458;2023-03-12T11:30:55;811.28;;;739.25;;
7239;SDS011;3661;53.288;10.458;2023-03-12T11:33:36;793.47;;;721.50;;
7239;SDS011;3661;53.288;10.458;2023-03-12T11:36:31;825.60;;;751.53;;
7239;SDS011;3661;53.288;10.458;2023-03-12T11:39:29;817.83;;;745.73;;
7239;SDS011;3661;53.288;10.458;2023-03-12T11:42:33;810.20;;;738.38;;
7239;SDS011;3661;53.288;10.458;2023-03-12T11:45:36;803.30;;;731.53;;
7239;SDS011;3661;53.288;10.458;2023-03-12T11:52:22;835.25;;;763.10;;
7239;SDS011;3661;53.288;10.458;2023-03-12T12:02:44;827.22;;;755.17;;
7239;SDS011;3661;53.288;10.458;2023-03-12T12:09:37;819.17;;;747.57;;
7239;SDS011;3661;53.288;10.458;2023-03-12T12:12:46;810.25;;;738.45;;
7239;SDS011;3661;53.288;10.458;2023-03-12T12:15:45;819.97;;;748.30;;
7239;SDS011;3661;53.288;10.458;2023-03-12T12:22:33;815.55;;;743.38;;
7239;SDS011;3661;53.288;10.458;2023-03-12T12:25:50;825.03;;;752.90;;
7239;SDS011;3661;53.288;10.458;2023-03-12T12:33:02;797.22;;;725.75;;
7239;SDS011;3661;53.288;10.458;2023-03-12T12:35:46;816.65;;;744.55;;
7239;SDS011;3661;53.288;10.458;2023-03-12T12:38:20;808.85;;;736.85;;
7239;SDS011;3661;53.288;10.458;2023-03-12T12:41:00;820.45;;;748.70;;
7239;SDS011;3661;53.288;10.458;2023-03-12T12:43:38;799.75;;;728.10;;
7239;SDS011;3661;53.288;10.458;2023-03-12T12:46:13;802.17;;;730.90;;
7239;SDS011;3661;53.288;10.458;2023-03-12T12:48:51;809.88;;;738.60;;
7239;SDS011;3661;53.288;10.458;2023-03-12T12:51:27;795.25;;;723.55;;
7239;SDS011;3661;53.288;10.458;2023-03-12T12:54:05;806.83;;;734.92;;
7239;SDS011;3661;53.288;10.458;2023-03-12T12:56:44;813.60;;;742.00;;
7239;SDS011;3661;53.288;10.458;2023-03-12T12:59:26;804.03;;;732.17;;
7239;SDS011;3661;53.288;10.458;2023-03-12T13:02:11;773.88;;;702.13;;
7239;SDS011;3661;53.288;10.458;2023-03-12T13:04:48;812.63;;;740.90;;
7239;SDS011;3661;53.288;10.458;2023-03-12T13:10:06;806.58;;;733.92;;
7239;SDS011;3661;53.288;10.458;2023-03-12T13:13:28;796.83;;;724.63;;
7239;SDS011;3661;53.288;10.458;2023-03-12T13:16:15;799.95;;;727.13;;
7239;SDS011;3661;53.288;10.458;2023-03-12T13:19:00;807.38;;;734.78;;
7239;SDS011;3661;53.288;10.458;2023-03-12T13:21:45;778.15;;;706.17;;
7239;SDS011;3661;53.288;10.458;2023-03-12T13:24:48;777.50;;;705.27;;
7239;SDS011;3661;53.288;10.458;2023-03-12T13:27:47;797.70;;;725.95;;
7239;SDS011;3661;53.288;10.458;2023-03-12T13:40:53;803.47;;;732.28;;
7239;SDS011;3661;53.288;10.458;2023-03-12T13:43:51;796.47;;;725.03;;
7239;SDS011;3661;53.288;10.458;2023-03-12T13:46:39;795.83;;;724.38;;
7239;SDS011;3661;53.288;10.458;2023-03-12T13:50:03;805.60;;;734.30;;
7239;SDS011;3661;53.288;10.458;2023-03-12T13:52:39;803.90;;;732.58;;
7239;SDS011;3661;53.288;10.458;2023-03-12T14:56:52;773.38;;;704.15;;
7239;SDS011;3661;53.288;10.458;2023-03-12T14:59:26;783.30;;;714.60;;
7239;SDS011;3661;53.288;10.458;2023-03-12T15:02:00;782.13;;;713.05;;
7239;SDS011;3661;53.288;10.458;2023-03-12T15:04:41;784.20;;;715.63;;
7239;SDS011;3661;53.288;10.458;2023-03-12T15:07:14;793.88;;;724.67;;
7239;SDS011;3661;53.288;10.458;2023-03-12T15:09:50;785.10;;;716.00;;
7239;SDS011;3661;53.288;10.458;2023-03-12T15:12:24;781.90;;;713.60;;
7239;SDS011;3661;53.288;10.458;2023-03-12T15:15:00;778.47;;;709.80;;
7239;SDS011;3661;53.288;10.458;2023-03-12T15:17:36;770.80;;;702.00;;
7239;SDS011;3661;53.288;10.458;2023-03-12T15:20:10;781.67;;;713.17;;
7239;SDS011;3661;53.288;10.458;2023-03-12T15:22:46;779.33;;;710.88;;
7239;SDS011;3661;53.288;10.458;2023-03-12T15:25:24;781.47;;;712.40;;
7239;SDS011;3661;53.288;10.458;2023-03-12T15:28:02;761.43;;;693.03;;
7239;SDS011;3661;53.288;10.458;2023-03-12T15:30:37;759.63;;;691.75;;
7239;SDS011;3661;53.288;10.458;2023-03-12T15:33:20;774.63;;;706.58;;
7239;SDS011;3661;53.288;10.458;2023-03-12T15:35:59;775.20;;;707.47;;
7239;SDS011;3661;53.288;10.458;2023-03-12T15:38:33;774.15;;;706.25;;
7239;SDS011;3661;53.288;10.458;2023-03-12T15:41:15;749.97;;;682.50;;
7239;SDS011;3661;53.288;10.458;2023-03-12T15:43:51;769.00;;;701.28;;
7239;SDS011;3661;53.288;10.458;2023-03-12T15:46:25;764.50;;;695.88;;
7239;SDS011;3661;53.288;10.458;2023-03-12T15:48:58;747.53;;;680.03;;
7239;SDS011;3661;53.288;10.458;2023-03-12T15:51:32;749.97;;;681.93;;
7239;SDS011;3661;53.288;10.458;2023-03-12T15:54:19;760.47;;;692.40;;
7239;SDS011;3661;53.288;10.458;2023-03-12T15:57:14;756.53;;;688.85;;
7239;SDS011;3661;53.288;10.458;2023-03-12T16:00:05;763.70;;;696.15;;
7239;SDS011;3661;53.288;10.458;2023-03-12T16:02:51;762.25;;;694.08;;
7239;SDS011;3661;53.288;10.458;2023-03-12T16:05:26;764.22;;;696.72;;
7239;SDS011;3661;53.288;10.458;2023-03-12T16:08:01;752.63;;;684.93;;
7239;SDS011;3661;53.288;10.458;2023-03-12T16:10:48;754.92;;;687.42;;
7239;SDS011;3661;53.288;10.458;2023-03-12T16:13:22;748.77;;;681.03;;
7239;SDS011;3661;53.288;10.458;2023-03-12T16:16:00;743.22;;;675.90;;
7239;SDS011;3661;53.288;10.458;2023-03-12T16:18:33;747.50;;;679.38;;
7239;SDS011;3661;53.288;10.458;2023-03-12T16:21:05;747.92;;;680.45;;
7239;SDS011;3661;53.288;10.458;2023-03-12T16:23:38;736.28;;;669.08;;
7239;SDS011;3661;53.288;10.458;2023-03-12T16:26:10;735.38;;;668.22;;
7239;SDS011;3661;53.288;10.458;2023-03-12T16:28:44;739.67;;;672.40;;
7239;SDS011;3661;53.288;10.458;2023-03-12T16:31:17;743.97;;;676.63;;
7239;SDS011;3661;53.288;10.458;2023-03-12T16:33:49;727.22;;;660.33;;
7239;SDS011;3661;53.288;10.458;2023-03-12T16:36:25;741.60;;;674.45;;
7239;SDS011;3661;53.288;10.458;2023-03-12T16:38:57;734.03;;;667.40;;
7239;SDS011;3661;53.288;10.458;2023-03-12T16:41:29;744.80;;;677.30;;
7239;SDS011;3661;53.288;10.458;2023-03-12T16:44:05;727.90;;;661.63;;
7239;SDS011;3661;53.288;10.458;2023-03-12T16:46:44;735.45;;;668.13;;
7239;SDS011;3661;53.288;10.458;2023-03-12T16:49:16;729.50;;;662.65;;
7239;SDS011;3661;53.288;10.458;2023-03-12T16:51:50;734.72;;;668.45;;
7239;SDS011;3661;53.288;10.458;2023-03-12T16:54:22;731.30;;;665.05;;
7239;SDS011;3661;53.288;10.458;2023-03-12T16:56:54;718.95;;;652.70;;
7239;SDS011;3661;53.288;10.458;2023-03-12T16:59:28;730.83;;;664.13;;
7239;SDS011;3661;53.288;10.458;2023-03-12T17:02:02;716.95;;;650.55;;
7239;SDS011;3661;53.288;10.458;2023-03-12T17:04:45;727.03;;;660.60;;
7239;SDS011;3661;53.288;10.458;2023-03-12T17:07:17;711.22;;;644.78;;
7239;SDS011;3661;53.288;10.458;2023-03-12T17:09:50;711.33;;;644.63;;
7239;SDS011;3661;53.288;10.458;2023-03-12T17:12:24;719.85;;;652.90;;
7239;SDS011;3661;53.288;10.458;2023-03-12T17:15:01;708.37;;;642.00;;
7239;SDS011;3661;53.288;10.458;2023-03-12T17:17:38;702.17;;;635.22;;
7239;SDS011;3661;53.288;10.458;2023-03-12T17:20:12;732.42;;;665.65;;
7239;SDS011;3661;53.288;10.458;2023-03-12T17:22:45;712.05;;;645.33;;